sensor_id;sensor_type;location;lat;lon;timestamp;P1;durP1;ratioP1;P2;durP2;ratioP2
8327;SDS011;4201;48.754;8.864;2023-04-03T00:00:13;6.30;;;4.10;;
8327;SDS011;4201;48.754;8.864;2023-04-03T00:02:39;5.13;;;4.00;;
8327;SDS011;4201;48.754;8.864;2023-04-03T00:05:06;8.40;;;4.13;;
8327;SDS011;4201;48.754;8.864;2023-04-03T00:07:32;5.97;;;4.00;;
8327;SDS011;4201;48.754;8.864;2023-04-03T00:09:59;7.40;;;4.20;;
8327;SDS011;4201;48.754;8.864;2023-04-03T00:12:25;10.40;;;4.90;;
8327;SDS011;4201;48.754;8.864;2023-04-03T00:14:52;6.40;;;4.27;;
8327;SDS011;4201;48.754;8.864;2023-04-03T00:17:19;7.47;;;4.50;;
8327;SDS011;4201;48.754;8.864;2023-04-03T00:19:45;6.47;;;4.80;;
8327;SDS011;4201;48.754;8.864;2023-04-03T00:22:12;6.97;;;3.67;;
8327;SDS011;4201;48.754;8.864;2023-04-03T00:24:38;9.77;;;5.00;;
8327;SDS011;4201;48.754;8.864;2023-04-03T00:27:04;6.17;;;4.00;;
8327;SDS011;4201;48.754;8.864;2023-04-03T00:29:37;6.80;;;4.70;;
8327;SDS011;4201;48.754;8.864;2023-04-03T00:32:03;6.33;;;4.40;;
8327;SDS011;4201;48.754;8.864;2023-04-03T00:34:31;8.70;;;4.57;;
8327;SDS011;4201;48.754;8.864;2023-04-03T00:36:57;9.03;;;4.60;;
8327;SDS011;4201;48.754;8.864;2023-04-03T00:39:23;6.40;;;3.70;;
8327;SDS011;4201;48.754;8.864;2023-04-03T00:41:50;7.77;;;5.07;;
8327;SDS011;4201;48.754;8.864;2023-04-03T00:44:23;8.07;;;4.60;;
8327;SDS011;4201;48.754;8.864;2023-04-03T00:47:09;6.83;;;3.93;;
8327;SDS011;4201;48.754;8.864;2023-04-03T00:49:39;5.47;;;4.10;;
8327;SDS011;4201;48.754;8.864;2023-04-03T00:52:06;9.83;;;5.33;;
8327;SDS011;4201;48.754;8.864;2023-04-03T00:54:33;6.53;;;4.30;;
8327;SDS011;4201;48.754;8.864;2023-04-03T00:57:00;8.63;;;4.07;;
8327;SDS011;4201;48.754;8.864;2023-04-03T00:59:27;7.63;;;4.70;;
8327;SDS011;4201;48.754;8.864;2023-04-03T01:01:55;7.83;;;4.60;;
8327;SDS011;4201;48.754;8.864;2023-04-03T01:04:26;6.40;;;4.50;;
8327;SDS011;4201;48.754;8.864;2023-04-03T01:06:54;13.00;;;4.63;;
8327;SDS011;4201;48.754;8.864;2023-04-03T01:09:21;5.60;;;3.97;;
8327;SDS011;4201;48.754;8.864;2023-04-03T01:11:48;6.40;;;4.20;;
8327;SDS011;4201;48.754;8.864;2023-04-03T01:14:14;6.13;;;3.87;;
8327;SDS011;4201;48.754;8.864;2023-04-03T01:16:40;8.67;;;4.83;;
8327;SDS011;4201;48.754;8.864;2023-04-03T01:19:07;7.30;;;4.60;;
8327;SDS011;4201;48.754;8.864;2023-04-03T01:21:43;7.23;;;4.73;;
8327;SDS011;4201;48.754;8.864;2023-04-03T01:24:21;8.80;;;4.40;;
8327;SDS011;4201;48.754;8.864;2023-04-03T01:26:49;8.10;;;4.30;;
8327;SDS011;4201;48.754;8.864;2023-04-03T01:29:16;5.37;;;3.90;;
8327;SDS011;4201;48.754;8.864;2023-04-03T01:31:48;8.67;;;4.73;;
8327;SDS011;4201;48.754;8.864;2023-04-03T01:34:14;7.60;;;4.20;;
8327;SDS011;4201;48.754;8.864;2023-04-03T01:36:40;7.97;;;4.63;;
8327;SDS011;4201;48.754;8.864;2023-04-03T01:39:07;9.27;;;4.77;;
8327;SDS011;4201;48.754;8.864;2023-04-03T01:41:34;6.50;;;4.83;;
8327;SDS011;4201;48.754;8.864;2023-04-03T01:44:00;8.93;;;4.20;;
8327;SDS011;4201;48.754;8.864;2023-04-03T01:46:26;7.17;;;5.30;;
8327;SDS011;4201;48.754;8.864;2023-04-03T01:48:54;8.10;;;4.43;;
8327;SDS011;4201;48.754;8.864;2023-04-03T01:51:20;12.10;;;5.70;;
8327;SDS011;4201;48.754;8.864;2023-04-03T01:53:46;7.10;;;4.40;;
8327;SDS011;4201;48.754;8.864;2023-04-03T01:56:13;7.63;;;4.13;;
8327;SDS011;4201;48.754;8.864;2023-04-03T01:58:39;8.53;;;5.07;;
8327;SDS011;4201;48.754;8.864;2023-04-03T02:01:05;10.23;;;4.90;;
8327;SDS011;4201;48.754;8.864;2023-04-03T02:03:31;6.80;;;4.60;;
8327;SDS011;4201;48.754;8.864;2023-04-03T02:05:59;5.20;;;4.10;;
8327;SDS011;4201;48.754;8.864;2023-04-03T02:08:25;7.77;;;5.27;;
8327;SDS011;4201;48.754;8.864;2023-04-03T02:10:52;11.53;;;4.20;;
8327;SDS011;4201;48.754;8.864;2023-04-03T02:13:18;6.37;;;4.63;;
8327;SDS011;4201;48.754;8.864;2023-04-03T02:15:44;6.70;;;4.40;;
8327;SDS011;4201;48.754;8.864;2023-04-03T02:18:11;7.90;;;5.60;;
8327;SDS011;4201;48.754;8.864;2023-04-03T02:20:38;10.03;;;5.00;;
8327;SDS011;4201;48.754;8.864;2023-04-03T02:23:05;7.50;;;4.90;;
8327;SDS011;4201;48.754;8.864;2023-04-03T02:25:32;7.57;;;5.03;;
8327;SDS011;4201;48.754;8.864;2023-04-03T02:27:59;9.13;;;4.83;;
8327;SDS011;4201;48.754;8.864;2023-04-03T02:30:25;11.23;;;4.70;;
8327;SDS011;4201;48.754;8.864;2023-04-03T02:32:52;6.07;;;3.87;;
8327;SDS011;4201;48.754;8.864;2023-04-03T02:35:18;8.30;;;4.47;;
8327;SDS011;4201;48.754;8.864;2023-04-03T02:37:45;7.97;;;4.90;;
8327;SDS011;4201;48.754;8.864;2023-04-03T02:40:12;5.60;;;4.20;;
8327;SDS011;4201;48.754;8.864;2023-04-03T02:42:38;8.87;;;5.57;;
8327;SDS011;4201;48.754;8.864;2023-04-03T02:45:05;7.33;;;4.53;;
8327;SDS011;4201;48.754;8.864;2023-04-03T02:47:32;7.43;;;4.47;;
8327;SDS011;4201;48.754;8.864;2023-04-03T02:49:58;7.07;;;5.00;;
8327;SDS011;4201;48.754;8.864;2023-04-03T02:52:24;5.83;;;4.20;;
8327;SDS011;4201;48.754;8.864;2023-04-03T02:54:50;7.17;;;4.27;;
8327;SDS011;4201;48.754;8.864;2023-04-03T02:57:18;9.43;;;4.37;;
8327;SDS011;4201;48.754;8.864;2023-04-03T02:59:45;8.30;;;5.00;;
8327;SDS011;4201;48.754;8.864;2023-04-03T03:02:11;6.20;;;4.30;;
8327;SDS011;4201;48.754;8.864;2023-04-03T03:04:37;7.27;;;5.23;;
8327;SDS011;4201;48.754;8.864;2023-04-03T03:07:03;7.57;;;4.90;;
8327;SDS011;4201;48.754;8.864;2023-04-03T03:09:30;6.50;;;4.30;;
8327;SDS011;4201;48.754;8.864;2023-04-03T03:11:56;9.37;;;4.70;;
8327;SDS011;4201;48.754;8.864;2023-04-03T03:14:24;7.90;;;4.23;;
8327;SDS011;4201;48.754;8.864;2023-04-03T03:16:50;7.47;;;4.93;;
8327;SDS011;4201;48.754;8.864;2023-04-03T03:19:17;6.13;;;4.37;;
8327;SDS011;4201;48.754;8.864;2023-04-03T03:21:43;7.60;;;4.43;;
8327;SDS011;4201;48.754;8.864;2023-04-03T03:24:09;8.33;;;4.77;;
8327;SDS011;4201;48.754;8.864;2023-04-03T03:26:36;7.07;;;4.53;;
8327;SDS011;4201;48.754;8.864;2023-04-03T03:29:03;8.73;;;5.20;;
8327;SDS011;4201;48.754;8.864;2023-04-03T03:31:30;9.20;;;4.50;;
8327;SDS011;4201;48.754;8.864;2023-04-03T03:33:57;8.40;;;5.00;;
8327;SDS011;4201;48.754;8.864;2023-04-03T03:36:23;4.90;;;4.07;;
8327;SDS011;4201;48.754;8.864;2023-04-03T03:38:49;8.43;;;4.20;;
8327;SDS011;4201;48.754;8.864;2023-04-03T03:41:15;13.00;;;5.40;;
8327;SDS011;4201;48.754;8.864;2023-04-03T03:43:42;7.57;;;4.70;;
8327;SDS011;4201;48.754;8.864;2023-04-03T03:46:08;10.27;;;5.90;;
8327;SDS011;4201;48.754;8.864;2023-04-03T03:48:36;7.90;;;4.50;;
8327;SDS011;4201;48.754;8.864;2023-04-03T03:51:02;10.00;;;5.97;;
8327;SDS011;4201;48.754;8.864;2023-04-03T03:53:28;7.67;;;4.90;;
8327;SDS011;4201;48.754;8.864;2023-04-03T03:55:55;10.70;;;5.10;;
8327;SDS011;4201;48.754;8.864;2023-04-03T03:58:21;7.30;;;4.87;;
8327;SDS011;4201;48.754;8.864;2023-04-03T04:00:47;6.43;;;4.97;;
8327;SDS011;4201;48.754;8.864;2023-04-03T04:03:14;7.90;;;4.43;;
8327;SDS011;4201;48.754;8.864;2023-04-03T04:05:42;7.37;;;5.13;;
8327;SDS011;4201;48.754;8.864;2023-04-03T04:08:08;6.80;;;5.17;;
8327;SDS011;4201;48.754;8.864;2023-04-03T04:10:35;6.73;;;4.73;;
8327;SDS011;4201;48.754;8.864;2023-04-03T04:13:01;7.27;;;5.20;;
8327;SDS011;4201;48.754;8.864;2023-04-03T04:15:27;7.00;;;4.53;;
8327;SDS011;4201;48.754;8.864;2023-04-03T04:17:54;8.13;;;4.20;;
8327;SDS011;4201;48.754;8.864;2023-04-03T04:20:20;8.00;;;4.93;;
8327;SDS011;4201;48.754;8.864;2023-04-03T04:22:48;7.80;;;4.43;;
8327;SDS011;4201;48.754;8.864;2023-04-03T04:25:14;7.33;;;4.93;;
8327;SDS011;4201;48.754;8.864;2023-04-03T04:27:40;7.60;;;4.83;;
8327;SDS011;4201;48.754;8.864;2023-04-03T04:30:07;7.97;;;4.67;;
8327;SDS011;4201;48.754;8.864;2023-04-03T04:32:34;6.60;;;5.17;;
8327;SDS011;4201;48.754;8.864;2023-04-03T04:35:00;5.73;;;4.40;;
8327;SDS011;4201;48.754;8.864;2023-04-03T04:37:26;6.17;;;4.47;;
8327;SDS011;4201;48.754;8.864;2023-04-03T04:39:54;6.40;;;4.50;;
8327;SDS011;4201;48.754;8.864;2023-04-03T04:42:20;7.50;;;4.23;;
8327;SDS011;4201;48.754;8.864;2023-04-03T04:44:47;10.33;;;5.67;;
8327;SDS011;4201;48.754;8.864;2023-04-03T04:47:13;9.07;;;4.90;;
8327;SDS011;4201;48.754;8.864;2023-04-03T04:49:39;6.13;;;4.10;;
8327;SDS011;4201;48.754;8.864;2023-04-03T04:52:06;11.57;;;4.60;;
8327;SDS011;4201;48.754;8.864;2023-04-03T04:54:32;7.20;;;4.63;;
8327;SDS011;4201;48.754;8.864;2023-04-03T04:57:00;6.80;;;4.77;;
8327;SDS011;4201;48.754;8.864;2023-04-03T04:59:26;7.03;;;4.60;;
8327;SDS011;4201;48.754;8.864;2023-04-03T05:01:52;6.70;;;4.33;;
8327;SDS011;4201;48.754;8.864;2023-04-03T05:04:18;5.93;;;4.00;;
8327;SDS011;4201;48.754;8.864;2023-04-03T05:06:45;7.20;;;4.40;;
8327;SDS011;4201;48.754;8.864;2023-04-03T05:09:11;5.70;;;4.30;;
8327;SDS011;4201;48.754;8.864;2023-04-03T05:11:37;6.97;;;4.47;;
8327;SDS011;4201;48.754;8.864;2023-04-03T05:14:05;9.17;;;6.23;;
8327;SDS011;4201;48.754;8.864;2023-04-03T05:16:32;6.10;;;4.40;;
8327;SDS011;4201;48.754;8.864;2023-04-03T05:18:58;8.20;;;4.00;;
8327;SDS011;4201;48.754;8.864;2023-04-03T05:21:24;5.67;;;4.30;;
8327;SDS011;4201;48.754;8.864;2023-04-03T05:23:52;7.70;;;4.67;;
8327;SDS011;4201;48.754;8.864;2023-04-03T05:26:19;5.10;;;3.67;;
8327;SDS011;4201;48.754;8.864;2023-04-03T05:28:46;7.03;;;4.90;;
8327;SDS011;4201;48.754;8.864;2023-04-03T05:31:13;7.97;;;5.57;;
8327;SDS011;4201;48.754;8.864;2023-04-03T05:33:40;6.13;;;4.30;;
8327;SDS011;4201;48.754;8.864;2023-04-03T05:36:06;5.83;;;4.00;;
8327;SDS011;4201;48.754;8.864;2023-04-03T05:38:32;6.40;;;3.27;;
8327;SDS011;4201;48.754;8.864;2023-04-03T05:40:59;7.03;;;4.33;;
8327;SDS011;4201;48.754;8.864;2023-04-03T05:43:25;5.97;;;4.60;;
8327;SDS011;4201;48.754;8.864;2023-04-03T05:45:51;13.20;;;5.70;;
8327;SDS011;4201;48.754;8.864;2023-04-03T05:48:19;6.60;;;4.63;;
8327;SDS011;4201;48.754;8.864;2023-04-03T05:50:45;6.37;;;4.37;;
8327;SDS011;4201;48.754;8.864;2023-04-03T05:53:12;7.33;;;4.30;;
8327;SDS011;4201;48.754;8.864;2023-04-03T05:55:41;5.57;;;4.07;;
8327;SDS011;4201;48.754;8.864;2023-04-03T05:58:07;10.00;;;4.27;;
8327;SDS011;4201;48.754;8.864;2023-04-03T06:00:34;8.03;;;4.57;;
8327;SDS011;4201;48.754;8.864;2023-04-03T06:03:00;5.23;;;3.13;;
8327;SDS011;4201;48.754;8.864;2023-04-03T06:05:28;11.40;;;4.37;;
8327;SDS011;4201;48.754;8.864;2023-04-03T06:07:54;4.50;;;3.20;;
8327;SDS011;4201;48.754;8.864;2023-04-03T06:10:22;5.77;;;3.43;;
8327;SDS011;4201;48.754;8.864;2023-04-03T06:12:48;8.07;;;4.53;;
8327;SDS011;4201;48.754;8.864;2023-04-03T06:15:15;8.73;;;7.93;;
8327;SDS011;4201;48.754;8.864;2023-04-03T06:17:42;5.37;;;3.23;;
8327;SDS011;4201;48.754;8.864;2023-04-03T06:20:09;5.20;;;4.47;;
8327;SDS011;4201;48.754;8.864;2023-04-03T06:22:36;5.73;;;5.20;;
8327;SDS011;4201;48.754;8.864;2023-04-03T06:25:03;6.40;;;4.57;;
8327;SDS011;4201;48.754;8.864;2023-04-03T06:27:29;9.40;;;7.47;;
8327;SDS011;4201;48.754;8.864;2023-04-03T06:29:56;6.60;;;4.40;;
8327;SDS011;4201;48.754;8.864;2023-04-03T06:32:22;3.73;;;2.73;;
8327;SDS011;4201;48.754;8.864;2023-04-03T06:34:48;8.27;;;3.80;;
8327;SDS011;4201;48.754;8.864;2023-04-03T06:37:15;10.80;;;4.40;;
8327;SDS011;4201;48.754;8.864;2023-04-03T06:39:43;6.33;;;5.03;;
8327;SDS011;4201;48.754;8.864;2023-04-03T06:42:10;7.00;;;4.20;;
8327;SDS011;4201;48.754;8.864;2023-04-03T06:44:36;5.07;;;3.77;;
8327;SDS011;4201;48.754;8.864;2023-04-03T06:47:02;7.10;;;6.40;;
8327;SDS011;4201;48.754;8.864;2023-04-03T06:49:29;7.83;;;5.07;;
8327;SDS011;4201;48.754;8.864;2023-04-03T06:51:55;5.30;;;4.57;;
8327;SDS011;4201;48.754;8.864;2023-04-03T06:54:22;11.13;;;4.33;;
8327;SDS011;4201;48.754;8.864;2023-04-03T06:56:49;4.80;;;3.30;;
8327;SDS011;4201;48.754;8.864;2023-04-03T06:59:15;12.43;;;4.27;;
8327;SDS011;4201;48.754;8.864;2023-04-03T07:01:42;9.50;;;3.13;;
8327;SDS011;4201;48.754;8.864;2023-04-03T07:04:08;10.73;;;3.50;;
8327;SDS011;4201;48.754;8.864;2023-04-03T07:06:34;7.80;;;3.90;;
8327;SDS011;4201;48.754;8.864;2023-04-03T07:09:01;7.00;;;3.63;;
8327;SDS011;4201;48.754;8.864;2023-04-03T07:11:27;5.80;;;4.07;;
8327;SDS011;4201;48.754;8.864;2023-04-03T07:13:55;6.83;;;4.10;;
8327;SDS011;4201;48.754;8.864;2023-04-03T07:16:21;12.30;;;2.83;;
8327;SDS011;4201;48.754;8.864;2023-04-03T07:18:48;5.90;;;3.20;;
8327;SDS011;4201;48.754;8.864;2023-04-03T07:21:14;5.53;;;3.97;;
8327;SDS011;4201;48.754;8.864;2023-04-03T07:23:40;7.20;;;4.20;;
8327;SDS011;4201;48.754;8.864;2023-04-03T07:26:07;9.00;;;4.13;;
8327;SDS011;4201;48.754;8.864;2023-04-03T07:28:33;6.17;;;3.30;;
8327;SDS011;4201;48.754;8.864;2023-04-03T07:31:01;7.37;;;4.13;;
8327;SDS011;4201;48.754;8.864;2023-04-03T07:33:28;4.83;;;3.13;;
8327;SDS011;4201;48.754;8.864;2023-04-03T07:35:56;6.70;;;4.43;;
8327;SDS011;4201;48.754;8.864;2023-04-03T07:38:22;9.03;;;5.47;;
8327;SDS011;4201;48.754;8.864;2023-04-03T07:40:48;6.90;;;5.43;;
8327;SDS011;4201;48.754;8.864;2023-04-03T07:43:15;6.80;;;3.77;;
8327;SDS011;4201;48.754;8.864;2023-04-03T07:45:42;7.90;;;4.00;;
8327;SDS011;4201;48.754;8.864;2023-04-03T07:48:10;6.87;;;4.30;;
8327;SDS011;4201;48.754;8.864;2023-04-03T07:50:37;5.93;;;3.93;;
8327;SDS011;4201;48.754;8.864;2023-04-03T07:53:03;7.33;;;3.87;;
8327;SDS011;4201;48.754;8.864;2023-04-03T07:55:29;7.63;;;5.93;;
8327;SDS011;4201;48.754;8.864;2023-04-03T07:57:57;4.83;;;2.80;;
8327;SDS011;4201;48.754;8.864;2023-04-03T08:00:23;13.90;;;4.90;;
8327;SDS011;4201;48.754;8.864;2023-04-03T08:02:50;6.00;;;4.30;;
8327;SDS011;4201;48.754;8.864;2023-04-03T08:05:18;10.40;;;4.07;;
8327;SDS011;4201;48.754;8.864;2023-04-03T08:07:45;5.07;;;3.30;;
8327;SDS011;4201;48.754;8.864;2023-04-03T08:10:11;4.90;;;3.77;;
8327;SDS011;4201;48.754;8.864;2023-04-03T08:12:37;6.27;;;3.83;;
8327;SDS011;4201;48.754;8.864;2023-04-03T08:15:04;9.20;;;5.73;;
8327;SDS011;4201;48.754;8.864;2023-04-03T08:17:31;9.93;;;7.00;;
8327;SDS011;4201;48.754;8.864;2023-04-03T08:19:58;9.33;;;4.87;;
8327;SDS011;4201;48.754;8.864;2023-04-03T08:22:26;7.33;;;4.70;;
8327;SDS011;4201;48.754;8.864;2023-04-03T08:24:52;7.20;;;4.90;;
8327;SDS011;4201;48.754;8.864;2023-04-03T08:27:18;9.27;;;4.37;;
8327;SDS011;4201;48.754;8.864;2023-04-03T08:29:45;6.63;;;4.13;;
8327;SDS011;4201;48.754;8.864;2023-04-03T08:32:11;7.93;;;4.80;;
8327;SDS011;4201;48.754;8.864;2023-04-03T08:34:37;9.77;;;4.70;;
8327;SDS011;4201;48.754;8.864;2023-04-03T08:37:04;9.90;;;4.30;;
8327;SDS011;4201;48.754;8.864;2023-04-03T08:39:32;8.70;;;5.23;;
8327;SDS011;4201;48.754;8.864;2023-04-03T08:41:58;11.57;;;4.60;;
8327;SDS011;4201;48.754;8.864;2023-04-03T08:44:28;7.60;;;4.93;;
8327;SDS011;4201;48.754;8.864;2023-04-03T08:47:02;6.67;;;4.00;;
8327;SDS011;4201;48.754;8.864;2023-04-03T08:49:30;11.70;;;5.27;;
8327;SDS011;4201;48.754;8.864;2023-04-03T08:51:57;5.93;;;3.90;;
8327;SDS011;4201;48.754;8.864;2023-04-03T08:54:27;6.43;;;4.23;;
8327;SDS011;4201;48.754;8.864;2023-04-03T08:56:56;8.70;;;4.47;;
8327;SDS011;4201;48.754;8.864;2023-04-03T08:59:25;9.13;;;4.00;;
8327;SDS011;4201;48.754;8.864;2023-04-03T09:01:52;11.33;;;3.83;;
8327;SDS011;4201;48.754;8.864;2023-04-03T09:04:19;9.13;;;3.80;;
8327;SDS011;4201;48.754;8.864;2023-04-03T09:06:48;7.43;;;3.90;;
8327;SDS011;4201;48.754;8.864;2023-04-03T09:09:15;7.97;;;5.13;;
8327;SDS011;4201;48.754;8.864;2023-04-03T09:11:51;7.07;;;4.70;;
8327;SDS011;4201;48.754;8.864;2023-04-03T09:14:22;6.70;;;4.20;;
8327;SDS011;4201;48.754;8.864;2023-04-03T09:16:52;6.00;;;3.67;;
8327;SDS011;4201;48.754;8.864;2023-04-03T09:19:21;8.33;;;4.20;;
8327;SDS011;4201;48.754;8.864;2023-04-03T09:21:50;5.07;;;3.40;;
8327;SDS011;4201;48.754;8.864;2023-04-03T09:24:17;5.83;;;4.13;;
8327;SDS011;4201;48.754;8.864;2023-04-03T09:26:44;6.07;;;3.40;;
8327;SDS011;4201;48.754;8.864;2023-04-03T09:29:14;6.40;;;3.67;;
8327;SDS011;4201;48.754;8.864;2023-04-03T09:31:43;5.57;;;3.43;;
8327;SDS011;4201;48.754;8.864;2023-04-03T09:34:13;8.77;;;4.30;;
8327;SDS011;4201;48.754;8.864;2023-04-03T09:36:42;6.20;;;3.90;;
8327;SDS011;4201;48.754;8.864;2023-04-03T09:39:10;5.00;;;3.40;;
8327;SDS011;4201;48.754;8.864;2023-04-03T09:41:37;8.27;;;3.43;;
8327;SDS011;4201;48.754;8.864;2023-04-03T09:44:04;4.23;;;2.87;;
8327;SDS011;4201;48.754;8.864;2023-04-03T09:46:44;8.17;;;4.07;;
8327;SDS011;4201;48.754;8.864;2023-04-03T09:49:11;4.67;;;3.70;;
8327;SDS011;4201;48.754;8.864;2023-04-03T09:51:37;5.00;;;2.70;;
8327;SDS011;4201;48.754;8.864;2023-04-03T09:54:25;7.87;;;3.60;;
8327;SDS011;4201;48.754;8.864;2023-04-03T09:56:52;9.20;;;4.27;;
8327;SDS011;4201;48.754;8.864;2023-04-03T09:59:20;8.60;;;3.67;;
8327;SDS011;4201;48.754;8.864;2023-04-03T10:01:57;6.83;;;3.87;;
8327;SDS011;4201;48.754;8.864;2023-04-03T10:04:24;7.40;;;3.40;;
8327;SDS011;4201;48.754;8.864;2023-04-03T10:06:51;6.53;;;3.90;;
8327;SDS011;4201;48.754;8.864;2023-04-03T10:09:19;7.03;;;4.50;;
8327;SDS011;4201;48.754;8.864;2023-04-03T10:11:59;6.00;;;3.77;;
8327;SDS011;4201;48.754;8.864;2023-04-03T10:14:26;5.30;;;3.83;;
8327;SDS011;4201;48.754;8.864;2023-04-03T10:16:53;6.00;;;3.17;;
8327;SDS011;4201;48.754;8.864;2023-04-03T10:19:32;5.47;;;3.30;;
8327;SDS011;4201;48.754;8.864;2023-04-03T10:22:01;5.67;;;3.50;;
8327;SDS011;4201;48.754;8.864;2023-04-03T10:24:31;6.60;;;3.27;;
8327;SDS011;4201;48.754;8.864;2023-04-03T10:27:02;6.53;;;3.17;;
8327;SDS011;4201;48.754;8.864;2023-04-03T10:29:34;8.07;;;3.33;;
8327;SDS011;4201;48.754;8.864;2023-04-03T10:32:02;5.47;;;4.07;;
8327;SDS011;4201;48.754;8.864;2023-04-03T10:34:38;6.87;;;3.50;;
8327;SDS011;4201;48.754;8.864;2023-04-03T10:37:06;6.90;;;3.80;;
8327;SDS011;4201;48.754;8.864;2023-04-03T10:39:39;4.77;;;3.20;;
8327;SDS011;4201;48.754;8.864;2023-04-03T10:42:13;6.93;;;3.10;;
8327;SDS011;4201;48.754;8.864;2023-04-03T10:44:42;4.53;;;3.80;;
8327;SDS011;4201;48.754;8.864;2023-04-03T10:47:13;6.30;;;3.40;;
8327;SDS011;4201;48.754;8.864;2023-04-03T10:49:45;4.63;;;3.70;;
8327;SDS011;4201;48.754;8.864;2023-04-03T10:52:14;6.43;;;3.17;;
8327;SDS011;4201;48.754;8.864;2023-04-03T10:54:43;10.57;;;3.97;;
8327;SDS011;4201;48.754;8.864;2023-04-03T10:57:12;7.43;;;3.07;;
8327;SDS011;4201;48.754;8.864;2023-04-03T10:59:40;6.07;;;3.60;;
8327;SDS011;4201;48.754;8.864;2023-04-03T11:02:11;8.00;;;3.40;;
8327;SDS011;4201;48.754;8.864;2023-04-03T11:04:40;6.10;;;3.10;;
8327;SDS011;4201;48.754;8.864;2023-04-03T11:07:10;7.53;;;2.80;;
8327;SDS011;4201;48.754;8.864;2023-04-03T11:09:39;11.03;;;7.60;;
8327;SDS011;4201;48.754;8.864;2023-04-03T11:12:11;6.83;;;3.37;;
8327;SDS011;4201;48.754;8.864;2023-04-03T11:14:38;3.90;;;2.40;;
8327;SDS011;4201;48.754;8.864;2023-04-03T11:17:09;4.80;;;2.60;;
8327;SDS011;4201;48.754;8.864;2023-04-03T11:19:38;5.80;;;3.07;;
8327;SDS011;4201;48.754;8.864;2023-04-03T11:22:08;5.90;;;2.90;;
8327;SDS011;4201;48.754;8.864;2023-04-03T11:24:37;5.53;;;2.97;;
8327;SDS011;4201;48.754;8.864;2023-04-03T11:27:05;4.37;;;2.40;;
8327;SDS011;4201;48.754;8.864;2023-04-03T11:29:32;5.07;;;2.67;;
8327;SDS011;4201;48.754;8.864;2023-04-03T11:32:03;5.57;;;3.27;;
8327;SDS011;4201;48.754;8.864;2023-04-03T11:34:33;5.50;;;3.13;;
8327;SDS011;4201;48.754;8.864;2023-04-03T11:37:01;5.10;;;3.23;;
8327;SDS011;4201;48.754;8.864;2023-04-03T11:39:30;9.70;;;2.63;;
8327;SDS011;4201;48.754;8.864;2023-04-03T11:44:39;4.57;;;2.40;;
8327;SDS011;4201;48.754;8.864;2023-04-03T11:47:07;5.77;;;3.30;;
8327;SDS011;4201;48.754;8.864;2023-04-03T11:49:53;5.07;;;2.47;;
8327;SDS011;4201;48.754;8.864;2023-04-03T11:58:10;6.30;;;2.90;;
8327;SDS011;4201;48.754;8.864;2023-04-03T12:03:33;6.50;;;2.27;;
8327;SDS011;4201;48.754;8.864;2023-04-03T12:08:47;5.80;;;2.10;;
8327;SDS011;4201;48.754;8.864;2023-04-03T12:11:21;7.77;;;2.83;;
8327;SDS011;4201;48.754;8.864;2023-04-03T12:14:01;8.17;;;2.90;;
8327;SDS011;4201;48.754;8.864;2023-04-03T12:16:29;5.67;;;2.73;;
8327;SDS011;4201;48.754;8.864;2023-04-03T12:19:01;3.87;;;2.77;;
8327;SDS011;4201;48.754;8.864;2023-04-03T12:24:24;4.53;;;2.60;;
8327;SDS011;4201;48.754;8.864;2023-04-03T12:27:01;10.53;;;2.67;;
8327;SDS011;4201;48.754;8.864;2023-04-03T12:29:33;5.40;;;2.87;;
8327;SDS011;4201;48.754;8.864;2023-04-03T12:32:04;5.20;;;2.33;;
8327;SDS011;4201;48.754;8.864;2023-04-03T12:34:46;5.30;;;2.50;;
8327;SDS011;4201;48.754;8.864;2023-04-03T12:37:21;6.47;;;3.30;;
8327;SDS011;4201;48.754;8.864;2023-04-03T12:39:55;6.80;;;2.73;;
8327;SDS011;4201;48.754;8.864;2023-04-03T12:42:30;9.20;;;2.60;;
8327;SDS011;4201;48.754;8.864;2023-04-03T12:44:59;6.00;;;2.30;;
8327;SDS011;4201;48.754;8.864;2023-04-03T12:47:29;6.67;;;3.20;;
8327;SDS011;4201;48.754;8.864;2023-04-03T12:49:59;3.97;;;2.40;;
8327;SDS011;4201;48.754;8.864;2023-04-03T12:52:31;4.97;;;2.37;;
8327;SDS011;4201;48.754;8.864;2023-04-03T12:54:58;7.67;;;2.30;;
8327;SDS011;4201;48.754;8.864;2023-04-03T12:57:27;4.57;;;2.17;;
8327;SDS011;4201;48.754;8.864;2023-04-03T12:59:53;8.20;;;2.50;;
8327;SDS011;4201;48.754;8.864;2023-04-03T13:02:21;6.47;;;2.87;;
8327;SDS011;4201;48.754;8.864;2023-04-03T13:04:48;4.97;;;3.00;;
8327;SDS011;4201;48.754;8.864;2023-04-03T13:07:23;6.13;;;2.77;;
8327;SDS011;4201;48.754;8.864;2023-04-03T13:09:56;5.53;;;3.00;;
8327;SDS011;4201;48.754;8.864;2023-04-03T13:12:24;5.00;;;2.30;;
8327;SDS011;4201;48.754;8.864;2023-04-03T13:14:54;4.23;;;2.40;;
8327;SDS011;4201;48.754;8.864;2023-04-03T13:17:22;5.63;;;2.70;;
8327;SDS011;4201;48.754;8.864;2023-04-03T13:19:49;7.40;;;2.70;;
8327;SDS011;4201;48.754;8.864;2023-04-03T13:22:24;4.97;;;3.10;;
8327;SDS011;4201;48.754;8.864;2023-04-03T13:24:52;5.83;;;2.60;;
8327;SDS011;4201;48.754;8.864;2023-04-03T13:27:20;5.40;;;2.93;;
8327;SDS011;4201;48.754;8.864;2023-04-03T13:29:49;4.70;;;2.70;;
8327;SDS011;4201;48.754;8.864;2023-04-03T13:32:18;6.00;;;2.50;;
8327;SDS011;4201;48.754;8.864;2023-04-03T13:34:46;7.47;;;3.27;;
8327;SDS011;4201;48.754;8.864;2023-04-03T13:37:19;5.17;;;2.53;;
8327;SDS011;4201;48.754;8.864;2023-04-03T13:39:55;4.80;;;2.50;;
8327;SDS011;4201;48.754;8.864;2023-04-03T13:42:23;6.27;;;3.03;;
8327;SDS011;4201;48.754;8.864;2023-04-03T13:47:37;7.87;;;2.70;;
8327;SDS011;4201;48.754;8.864;2023-04-03T13:50:12;4.67;;;2.10;;
8327;SDS011;4201;48.754;8.864;2023-04-03T13:52:39;8.93;;;3.63;;
8327;SDS011;4201;48.754;8.864;2023-04-03T13:55:15;4.67;;;2.90;;
8327;SDS011;4201;48.754;8.864;2023-04-03T13:57:48;4.77;;;2.90;;
8327;SDS011;4201;48.754;8.864;2023-04-03T14:00:28;4.37;;;2.53;;
8327;SDS011;4201;48.754;8.864;2023-04-03T14:02:55;4.77;;;2.50;;
8327;SDS011;4201;48.754;8.864;2023-04-03T14:05:22;3.80;;;2.23;;
8327;SDS011;4201;48.754;8.864;2023-04-03T14:07:50;13.30;;;3.00;;
8327;SDS011;4201;48.754;8.864;2023-04-03T14:10:18;5.40;;;2.03;;
8327;SDS011;4201;48.754;8.864;2023-04-03T14:12:44;4.53;;;2.83;;
8327;SDS011;4201;48.754;8.864;2023-04-03T14:15:14;4.47;;;2.70;;
8327;SDS011;4201;48.754;8.864;2023-04-03T14:17:41;5.00;;;2.87;;
8327;SDS011;4201;48.754;8.864;2023-04-03T14:20:10;7.97;;;2.40;;
8327;SDS011;4201;48.754;8.864;2023-04-03T14:22:36;5.70;;;2.50;;
8327;SDS011;4201;48.754;8.864;2023-04-03T14:25:03;7.93;;;2.50;;
8327;SDS011;4201;48.754;8.864;2023-04-03T14:27:33;5.37;;;2.73;;
8327;SDS011;4201;48.754;8.864;2023-04-03T14:30:00;4.80;;;2.87;;
8327;SDS011;4201;48.754;8.864;2023-04-03T14:32:28;5.90;;;2.50;;
8327;SDS011;4201;48.754;8.864;2023-04-03T14:34:54;10.80;;;3.03;;
8327;SDS011;4201;48.754;8.864;2023-04-03T14:37:23;5.80;;;2.90;;
8327;SDS011;4201;48.754;8.864;2023-04-03T14:39:49;7.20;;;3.80;;
8327;SDS011;4201;48.754;8.864;2023-04-03T14:42:17;6.40;;;3.13;;
8327;SDS011;4201;48.754;8.864;2023-04-03T14:44:44;4.97;;;2.67;;
8327;SDS011;4201;48.754;8.864;2023-04-03T14:47:11;6.33;;;2.97;;
8327;SDS011;4201;48.754;8.864;2023-04-03T14:49:38;4.30;;;2.57;;
8327;SDS011;4201;48.754;8.864;2023-04-03T14:52:04;4.73;;;2.70;;
8327;SDS011;4201;48.754;8.864;2023-04-03T14:54:30;3.77;;;1.97;;
8327;SDS011;4201;48.754;8.864;2023-04-03T14:56:58;5.80;;;3.57;;
8327;SDS011;4201;48.754;8.864;2023-04-03T14:59:24;10.17;;;2.97;;
8327;SDS011;4201;48.754;8.864;2023-04-03T15:01:52;6.00;;;2.60;;
8327;SDS011;4201;48.754;8.864;2023-04-03T15:04:19;5.03;;;2.67;;
8327;SDS011;4201;48.754;8.864;2023-04-03T15:06:46;4.90;;;2.40;;
8327;SDS011;4201;48.754;8.864;2023-04-03T15:09:20;5.13;;;2.43;;
8327;SDS011;4201;48.754;8.864;2023-04-03T15:11:47;3.87;;;2.80;;
8327;SDS011;4201;48.754;8.864;2023-04-03T15:14:13;4.70;;;2.50;;
8327;SDS011;4201;48.754;8.864;2023-04-03T15:16:40;4.07;;;2.40;;
8327;SDS011;4201;48.754;8.864;2023-04-03T15:19:08;4.97;;;2.97;;
8327;SDS011;4201;48.754;8.864;2023-04-03T15:21:34;5.37;;;2.97;;
8327;SDS011;4201;48.754;8.864;2023-04-03T15:24:00;4.83;;;2.40;;
8327;SDS011;4201;48.754;8.864;2023-04-03T15:26:27;5.97;;;3.40;;
8327;SDS011;4201;48.754;8.864;2023-04-03T15:28:53;8.53;;;4.00;;
8327;SDS011;4201;48.754;8.864;2023-04-03T15:31:19;6.50;;;2.70;;
8327;SDS011;4201;48.754;8.864;2023-04-03T15:33:46;4.57;;;2.77;;
8327;SDS011;4201;48.754;8.864;2023-04-03T15:36:13;5.20;;;2.20;;
8327;SDS011;4201;48.754;8.864;2023-04-03T15:38:39;4.53;;;2.90;;